sensor_id;sensor_type;location;lat;lon;timestamp;temperature;humidity
5786;DHT22;2919;48.630;9.000;2023-12-22T00:01:06;6.40;99.90
5786;DHT22;2919;48.630;9.000;2023-12-22T00:03:32;6.40;99.90
5786;DHT22;2919;48.630;9.000;2023-12-22T00:05:57;6.40;99.90
5786;DHT22;2919;48.630;9.000;2023-12-22T00:08:23;6.40;99.90
5786;DHT22;2919;48.630;9.000;2023-12-22T00:10:49;6.30;99.90
5786;DHT22;2919;48.630;9.000;2023-12-22T00:13:14;6.60;99.90
5786;DHT22;2919;48.630;9.000;2023-12-22T00:15:40;6.30;99.90
5786;DHT22;2919;48.630;9.000;2023-12-22T00:18:07;6.30;99.90
5786;DHT22;2919;48.630;9.000;2023-12-22T00:20:33;6.30;99.90
5786;DHT22;2919;48.630;9.000;2023-12-22T00:22:58;7.20;99.90
5786;DHT22;2919;48.630;9.000;2023-12-22T00:25:24;6.40;99.90
5786;DHT22;2919;48.630;9.000;2023-12-22T00:27:49;6.40;99.90
5786;DHT22;2919;48.630;9.000;2023-12-22T00:30:15;6.40;99.90
5786;DHT22;2919;48.630;9.000;2023-12-22T00:32:40;6.50;99.90
5786;DHT22;2919;48.630;9.000;2023-12-22T00:35:06;6.50;99.90
5786;DHT22;2919;48.630;9.000;2023-12-22T00:37:31;6.50;99.90
5786;DHT22;2919;48.630;9.000;2023-12-22T00:39:57;6.60;99.90
5786;DHT22;2919;48.630;9.000;2023-12-22T00:42:22;6.60;99.90
5786;DHT22;2919;48.630;9.000;2023-12-22T00:44:48;6.60;99.90
5786;DHT22;2919;48.630;9.000;2023-12-22T00:47:13;6.50;99.90
5786;DHT22;2919;48.630;9.000;2023-12-22T00:49:39;6.60;99.90
5786;DHT22;2919;48.630;9.000;2023-12-22T00:52:04;6.60;99.90
5786;DHT22;2919;48.630;9.000;2023-12-22T00:54:30;6.50;99.90
5786;DHT22;2919;48.630;9.000;2023-12-22T00:56:57;6.60;99.90
5786;DHT22;2919;48.630;9.000;2023-12-22T00:59:23;6.50;99.90
5786;DHT22;2919;48.630;9.000;2023-12-22T01:01:49;6.50;99.90
5786;DHT22;2919;48.630;9.000;2023-12-22T01:04:14;6.50;99.90
5786;DHT22;2919;48.630;9.000;2023-12-22T01:06:40;6.50;99.90
5786;DHT22;2919;48.630;9.000;2023-12-22T01:09:05;6.60;99.90
5786;DHT22;2919;48.630;9.000;2023-12-22T01:11:31;6.50;99.90
5786;DHT22;2919;48.630;9.000;2023-12-22T01:13:57;6.50;99.90
5786;DHT22;2919;48.630;9.000;2023-12-22T01:16:22;6.50;99.90
5786;DHT22;2919;48.630;9.000;2023-12-22T01:18:49;6.50;99.90
5786;DHT22;2919;48.630;9.000;2023-12-22T01:21:16;6.80;99.90
5786;DHT22;2919;48.630;9.000;2023-12-22T01:23:41;6.50;99.90
5786;DHT22;2919;48.630;9.000;2023-12-22T01:26:07;6.50;99.90
5786;DHT22;2919;48.630;9.000;2023-12-22T01:28:33;6.40;99.90
5786;DHT22;2919;48.630;9.000;2023-12-22T01:31:00;6.40;99.90
5786;DHT22;2919;48.630;9.000;2023-12-22T01:33:25;6.30;99.90
5786;DHT22;2919;48.630;9.000;2023-12-22T01:35:51;6.30;99.90
5786;DHT22;2919;48.630;9.000;2023-12-22T01:38:16;6.20;99.90
5786;DHT22;2919;48.630;9.000;2023-12-22T01:40:42;6.10;99.90
5786;DHT22;2919;48.630;9.000;2023-12-22T01:43:07;6.10;99.90
5786;DHT22;2919;48.630;9.000;2023-12-22T01:45:33;6.00;99.90
5786;DHT22;2919;48.630;9.000;2023-12-22T01:47:58;6.00;99.90
5786;DHT22;2919;48.630;9.000;2023-12-22T01:50:24;6.00;99.90
5786;DHT22;2919;48.630;9.000;2023-12-22T01:52:50;5.90;99.90
5786;DHT22;2919;48.630;9.000;2023-12-22T01:55:16;6.00;99.90
5786;DHT22;2919;48.630;9.000;2023-12-22T01:57:44;6.00;99.90
5786;DHT22;2919;48.630;9.000;2023-12-22T02:00:10;5.90;99.90
5786;DHT22;2919;48.630;9.000;2023-12-22T02:02:36;5.90;99.90
5786;DHT22;2919;48.630;9.000;2023-12-22T02:05:04;5.90;99.90
5786;DHT22;2919;48.630;9.000;2023-12-22T02:07:30;5.80;99.90
5786;DHT22;2919;48.630;9.000;2023-12-22T02:09:56;5.90;99.90
5786;DHT22;2919;48.630;9.000;2023-12-22T02:12:21;6.00;99.90
5786;DHT22;2919;48.630;9.000;2023-12-22T02:14:47;6.10;99.90
5786;DHT22;2919;48.630;9.000;2023-12-22T02:17:23;6.20;99.90
5786;DHT22;2919;48.630;9.000;2023-12-22T02:19:50;6.20;99.90
5786;DHT22;2919;48.630;9.000;2023-12-22T02:22:16;6.20;99.90
5786;DHT22;2919;48.630;9.000;2023-12-22T02:24:42;6.20;99.90
5786;DHT22;2919;48.630;9.000;2023-12-22T02:29:45;6.20;99.90
5786;DHT22;2919;48.630;9.000;2023-12-22T02:35:16;6.20;99.90
5786;DHT22;2919;48.630;9.000;2023-12-22T02:37:43;6.20;99.90
5786;DHT22;2919;48.630;9.000;2023-12-22T02:40:11;6.20;99.90
5786;DHT22;2919;48.630;9.000;2023-12-22T02:42:38;6.20;99.90
5786;DHT22;2919;48.630;9.000;2023-12-22T02:45:05;6.30;99.90
5786;DHT22;2919;48.630;9.000;2023-12-22T02:47:31;6.30;99.90
5786;DHT22;2919;48.630;9.000;2023-12-22T02:49:58;6.40;99.90
5786;DHT22;2919;48.630;9.000;2023-12-22T02:52:24;6.50;99.90
5786;DHT22;2919;48.630;9.000;2023-12-22T02:54:50;6.40;99.90
5786;DHT22;2919;48.630;9.000;2023-12-22T02:57:15;6.50;99.90
5786;DHT22;2919;48.630;9.000;2023-12-22T02:59:41;6.50;99.90
5786;DHT22;2919;48.630;9.000;2023-12-22T03:02:06;6.50;99.90
5786;DHT22;2919;48.630;9.000;2023-12-22T03:04:32;6.50;99.90
5786;DHT22;2919;48.630;9.000;2023-12-22T03:06:57;6.40;99.90
5786;DHT22;2919;48.630;9.000;2023-12-22T03:09:23;6.50;99.90
5786;DHT22;2919;48.630;9.000;2023-12-22T03:11:49;6.40;99.90
5786;DHT22;2919;48.630;9.000;2023-12-22T03:14:14;6.30;99.90
5786;DHT22;2919;48.630;9.000;2023-12-22T03:16:40;6.20;99.90
5786;DHT22;2919;48.630;9.000;2023-12-22T03:19:07;6.20;99.90
5786;DHT22;2919;48.630;9.000;2023-12-22T03:21:32;6.30;99.90
5786;DHT22;2919;48.630;9.000;2023-12-22T03:23:58;6.40;99.90
5786;DHT22;2919;48.630;9.000;2023-12-22T03:26:26;6.30;99.90
5786;DHT22;2919;48.630;9.000;2023-12-22T03:28:51;6.30;99.90
5786;DHT22;2919;48.630;9.000;2023-12-22T03:31:17;6.40;99.90
5786;DHT22;2919;48.630;9.000;2023-12-22T03:33:42;6.40;99.90
5786;DHT22;2919;48.630;9.000;2023-12-22T03:36:08;6.40;99.90
5786;DHT22;2919;48.630;9.000;2023-12-22T03:38:33;6.50;99.90
5786;DHT22;2919;48.630;9.000;2023-12-22T03:40:59;6.50;99.90
5786;DHT22;2919;48.630;9.000;2023-12-22T03:43:24;6.60;99.90
5786;DHT22;2919;48.630;9.000;2023-12-22T03:45:50;6.40;99.90
5786;DHT22;2919;48.630;9.000;2023-12-22T03:48:15;6.40;99.90
5786;DHT22;2919;48.630;9.000;2023-12-22T03:50:41;6.40;99.90
5786;DHT22;2919;48.630;9.000;2023-12-22T03:53:07;6.40;99.90
5786;DHT22;2919;48.630;9.000;2023-12-22T03:55:32;6.40;99.90
5786;DHT22;2919;48.630;9.000;2023-12-22T03:57:58;6.50;99.90
5786;DHT22;2919;48.630;9.000;2023-12-22T04:00:23;6.40;99.90
5786;DHT22;2919;48.630;9.000;2023-12-22T04:02:49;6.40;99.90
5786;DHT22;2919;48.630;9.000;2023-12-22T04:05:14;6.30;99.90
5786;DHT22;2919;48.630;9.000;2023-12-22T04:07:40;6.30;99.90
5786;DHT22;2919;48.630;9.000;2023-12-22T04:10:06;6.40;99.90
5786;DHT22;2919;48.630;9.000;2023-12-22T04:12:31;6.40;99.90
5786;DHT22;2919;48.630;9.000;2023-12-22T04:14:57;6.40;99.90
5786;DHT22;2919;48.630;9.000;2023-12-22T04:17:22;6.40;99.90
5786;DHT22;2919;48.630;9.000;2023-12-22T04:19:48;6.60;99.90
5786;DHT22;2919;48.630;9.000;2023-12-22T04:22:13;6.40;99.90
5786;DHT22;2919;48.630;9.000;2023-12-22T04:24:39;6.40;99.90
5786;DHT22;2919;48.630;9.000;2023-12-22T04:27:04;6.40;99.90
5786;DHT22;2919;48.630;9.000;2023-12-22T04:29:30;6.30;99.90
5786;DHT22;2919;48.630;9.000;2023-12-22T04:31:55;6.40;99.90
5786;DHT22;2919;48.630;9.000;2023-12-22T04:34:21;6.30;99.90
5786;DHT22;2919;48.630;9.000;2023-12-22T04:36:46;6.20;99.90
5786;DHT22;2919;48.630;9.000;2023-12-22T04:39:12;6.20;99.90
5786;DHT22;2919;48.630;9.000;2023-12-22T04:41:37;5.90;99.90
5786;DHT22;2919;48.630;9.000;2023-12-22T04:44:03;5.80;99.90
5786;DHT22;2919;48.630;9.000;2023-12-22T04:46:31;5.80;99.90
5786;DHT22;2919;48.630;9.000;2023-12-22T04:48:57;5.70;99.90
5786;DHT22;2919;48.630;9.000;2023-12-22T04:51:23;5.70;99.90
5786;DHT22;2919;48.630;9.000;2023-12-22T04:53:49;5.70;99.90
5786;DHT22;2919;48.630;9.000;2023-12-22T04:56:14;5.70;99.90
5786;DHT22;2919;48.630;9.000;2023-12-22T04:58:40;5.70;99.90
5786;DHT22;2919;48.630;9.000;2023-12-22T05:01:06;5.70;99.90
5786;DHT22;2919;48.630;9.000;2023-12-22T05:03:31;5.70;99.90
5786;DHT22;2919;48.630;9.000;2023-12-22T05:05:57;5.60;99.90
5786;DHT22;2919;48.630;9.000;2023-12-22T05:08:22;5.70;99.90
5786;DHT22;2919;48.630;9.000;2023-12-22T05:10:48;5.80;99.90
5786;DHT22;2919;48.630;9.000;2023-12-22T05:13:13;5.80;99.90
5786;DHT22;2919;48.630;9.000;2023-12-22T05:15:39;5.80;99.90
5786;DHT22;2919;48.630;9.000;2023-12-22T05:18:04;5.80;99.90
5786;DHT22;2919;48.630;9.000;2023-12-22T05:20:30;5.80;99.90
5786;DHT22;2919;48.630;9.000;2023-12-22T05:22:55;5.80;99.90
5786;DHT22;2919;48.630;9.000;2023-12-22T05:25:20;5.90;99.90
5786;DHT22;2919;48.630;9.000;2023-12-22T05:27:46;6.00;99.90
5786;DHT22;2919;48.630;9.000;2023-12-22T05:30:12;6.00;99.90
5786;DHT22;2919;48.630;9.000;2023-12-22T05:32:38;6.00;99.90
5786;DHT22;2919;48.630;9.000;2023-12-22T05:35:03;6.10;99.90
5786;DHT22;2919;48.630;9.000;2023-12-22T05:37:29;6.10;99.90
5786;DHT22;2919;48.630;9.000;2023-12-22T05:39:54;6.10;99.90
5786;DHT22;2919;48.630;9.000;2023-12-22T05:42:21;6.20;99.90
5786;DHT22;2919;48.630;9.000;2023-12-22T05:44:46;6.20;99.90
5786;DHT22;2919;48.630;9.000;2023-12-22T05:47:18;6.20;99.90
5786;DHT22;2919;48.630;9.000;2023-12-22T05:49:43;6.30;99.90
5786;DHT22;2919;48.630;9.000;2023-12-22T05:52:09;6.30;99.90
5786;DHT22;2919;48.630;9.000;2023-12-22T05:54:38;6.30;99.90
5786;DHT22;2919;48.630;9.000;2023-12-22T05:57:03;6.30;99.90
5786;DHT22;2919;48.630;9.000;2023-12-22T05:59:31;6.30;99.90
5786;DHT22;2919;48.630;9.000;2023-12-22T06:01:58;6.30;99.90
5786;DHT22;2919;48.630;9.000;2023-12-22T06:04:27;6.20;99.90
5786;DHT22;2919;48.630;9.000;2023-12-22T06:06:52;6.00;99.90
5786;DHT22;2919;48.630;9.000;2023-12-22T06:09:18;6.00;99.90
5786;DHT22;2919;48.630;9.000;2023-12-22T06:11:46;5.90;99.90
5786;DHT22;2919;48.630;9.000;2023-12-22T06:14:11;6.00;99.90
5786;DHT22;2919;48.630;9.000;2023-12-22T06:16:37;6.00;99.90
5786;DHT22;2919;48.630;9.000;2023-12-22T06:19:02;6.00;99.90
5786;DHT22;2919;48.630;9.000;2023-12-22T06:21:28;6.10;99.90
5786;DHT22;2919;48.630;9.000;2023-12-22T06:23:54;6.20;99.90
5786;DHT22;2919;48.630;9.000;2023-12-22T06:26:19;6.10;99.90
5786;DHT22;2919;48.630;9.000;2023-12-22T06:28:45;6.10;99.90
5786;DHT22;2919;48.630;9.000;2023-12-22T06:31:21;6.10;99.90
5786;DHT22;2919;48.630;9.000;2023-12-22T06:33:50;6.10;99.90
5786;DHT22;2919;48.630;9.000;2023-12-22T06:36:24;6.00;99.90
5786;DHT22;2919;48.630;9.000;2023-12-22T06:38:51;5.90;99.90
5786;DHT22;2919;48.630;9.000;2023-12-22T06:41:29;5.80;99.90
5786;DHT22;2919;48.630;9.000;2023-12-22T06:43:56;5.80;99.90
5786;DHT22;2919;48.630;9.000;2023-12-22T06:46:24;5.70;99.90
5786;DHT22;2919;48.630;9.000;2023-12-22T06:48:56;5.70;99.90
5786;DHT22;2919;48.630;9.000;2023-12-22T06:51:23;5.60;99.90
5786;DHT22;2919;48.630;9.000;2023-12-22T06:53:50;5.60;99.90
5786;DHT22;2919;48.630;9.000;2023-12-22T06:58:46;5.70;99.90
5786;DHT22;2919;48.630;9.000;2023-12-22T07:01:21;5.70;99.90
5786;DHT22;2919;48.630;9.000;2023-12-22T07:03:48;5.70;99.90
5786;DHT22;2919;48.630;9.000;2023-12-22T07:06:14;5.80;99.90
5786;DHT22;2919;48.630;9.000;2023-12-22T07:08:40;5.90;99.90
5786;DHT22;2919;48.630;9.000;2023-12-22T07:11:06;5.90;99.90
5786;DHT22;2919;48.630;9.000;2023-12-22T07:13:32;5.80;99.90
5786;DHT22;2919;48.630;9.000;2023-12-22T07:15:58;5.80;99.90
5786;DHT22;2919;48.630;9.000;2023-12-22T07:18:23;5.80;99.90
5786;DHT22;2919;48.630;9.000;2023-12-22T07:20:50;5.80;99.90
5786;DHT22;2919;48.630;9.000;2023-12-22T07:23:16;5.80;99.90
5786;DHT22;2919;48.630;9.000;2023-12-22T07:25:41;5.80;99.90
5786;DHT22;2919;48.630;9.000;2023-12-22T07:28:07;5.80;99.90
5786;DHT22;2919;48.630;9.000;2023-12-22T07:30:32;5.80;99.90
5786;DHT22;2919;48.630;9.000;2023-12-22T07:32:58;5.80;99.90
5786;DHT22;2919;48.630;9.000;2023-12-22T07:35:23;5.80;99.90
5786;DHT22;2919;48.630;9.000;2023-12-22T07:37:49;5.80;99.90
5786;DHT22;2919;48.630;9.000;2023-12-22T07:40:14;5.80;99.90
5786;DHT22;2919;48.630;9.000;2023-12-22T07:42:40;5.70;99.90
5786;DHT22;2919;48.630;9.000;2023-12-22T07:45:06;5.80;99.90
5786;DHT22;2919;48.630;9.000;2023-12-22T07:47:32;5.70;99.90
5786;DHT22;2919;48.630;9.000;2023-12-22T07:49:58;5.70;99.90
5786;DHT22;2919;48.630;9.000;2023-12-22T07:57:24;5.70;99.90
5786;DHT22;2919;48.630;9.000;2023-12-22T07:59:50;5.80;99.90
5786;DHT22;2919;48.630;9.000;2023-12-22T08:02:15;5.80;99.90
5786;DHT22;2919;48.630;9.000;2023-12-22T08:04:41;5.80;99.90
5786;DHT22;2919;48.630;9.000;2023-12-22T08:07:06;5.90;99.90
5786;DHT22;2919;48.630;9.000;2023-12-22T08:09:32;5.90;99.90
5786;DHT22;2919;48.630;9.000;2023-12-22T08:11:58;5.90;99.90
5786;DHT22;2919;48.630;9.000;2023-12-22T08:14:23;6.00;99.90
5786;DHT22;2919;48.630;9.000;2023-12-22T08:16:49;6.10;99.90
5786;DHT22;2919;48.630;9.000;2023-12-22T08:19:14;6.20;99.90
5786;DHT22;2919;48.630;9.000;2023-12-22T08:21:42;6.20;99.90
5786;DHT22;2919;48.630;9.000;2023-12-22T08:24:08;6.20;99.90
5786;DHT22;2919;48.630;9.000;2023-12-22T08:26:33;6.20;99.90
5786;DHT22;2919;48.630;9.000;2023-12-22T08:28:59;6.30;99.90
5786;DHT22;2919;48.630;9.000;2023-12-22T08:31:24;6.40;99.90
5786;DHT22;2919;48.630;9.000;2023-12-22T08:33:50;6.40;99.90
5786;DHT22;2919;48.630;9.000;2023-12-22T08:36:15;6.50;99.90
5786;DHT22;2919;48.630;9.000;2023-12-22T08:38:41;6.40;99.90
5786;DHT22;2919;48.630;9.000;2023-12-22T08:41:07;6.50;99.90
5786;DHT22;2919;48.630;9.000;2023-12-22T08:43:33;6.70;99.90
5786;DHT22;2919;48.630;9.000;2023-12-22T08:45:59;6.70;99.90
5786;DHT22;2919;48.630;9.000;2023-12-22T08:48:25;6.50;99.90
5786;DHT22;2919;48.630;9.000;2023-12-22T08:50:50;6.50;99.90
5786;DHT22;2919;48.630;9.000;2023-12-22T08:53:16;6.50;99.90
5786;DHT22;2919;48.630;9.000;2023-12-22T08:55:41;6.60;99.90
5786;DHT22;2919;48.630;9.000;2023-12-22T08:58:07;6.40;99.90
5786;DHT22;2919;48.630;9.000;2023-12-22T09:00:32;6.50;99.90
5786;DHT22;2919;48.630;9.000;2023-12-22T09:02:58;6.60;99.90
5786;DHT22;2919;48.630;9.000;2023-12-22T09:05:23;6.50;99.90
5786;DHT22;2919;48.630;9.000;2023-12-22T09:07:49;6.60;99.90
5786;DHT22;2919;48.630;9.000;2023-12-22T09:10:14;6.70;99.90
5786;DHT22;2919;48.630;9.000;2023-12-22T09:12:40;6.60;99.90
5786;DHT22;2919;48.630;9.000;2023-12-22T09:15:05;6.60;99.90
5786;DHT22;2919;48.630;9.000;2023-12-22T09:17:31;6.60;99.90
5786;DHT22;2919;48.630;9.000;2023-12-22T09:19:57;6.60;99.90
5786;DHT22;2919;48.630;9.000;2023-12-22T09:22:23;6.60;99.90
5786;DHT22;2919;48.630;9.000;2023-12-22T09:24:49;6.40;99.90
5786;DHT22;2919;48.630;9.000;2023-12-22T09:27:14;6.30;99.90
5786;DHT22;2919;48.630;9.000;2023-12-22T09:29:40;6.30;99.90
5786;DHT22;2919;48.630;9.000;2023-12-22T09:32:05;6.40;99.90
5786;DHT22;2919;48.630;9.000;2023-12-22T09:34:31;6.40;99.90
5786;DHT22;2919;48.630;9.000;2023-12-22T09:36:57;6.40;99.90
5786;DHT22;2919;48.630;9.000;2023-12-22T09:39:22;6.50;99.90
5786;DHT22;2919;48.630;9.000;2023-12-22T09:41:49;6.60;99.90
5786;DHT22;2919;48.630;9.000;2023-12-22T09:44:20;6.50;99.90
5786;DHT22;2919;48.630;9.000;2023-12-22T09:46:49;6.50;99.90
5786;DHT22;2919;48.630;9.000;2023-12-22T09:49:17;6.50;99.90
5786;DHT22;2919;48.630;9.000;2023-12-22T09:51:44;6.50;99.90
5786;DHT22;2919;48.630;9.000;2023-12-22T09:54:10;6.50;99.90
5786;DHT22;2919;48.630;9.000;2023-12-22T09:56:37;6.50;99.90
5786;DHT22;2919;48.630;9.000;2023-12-22T09:59:11;6.70;99.90
5786;DHT22;2919;48.630;9.000;2023-12-22T10:01:40;6.60;99.90
5786;DHT22;2919;48.630;9.000;2023-12-22T10:04:07;6.70;99.90
5786;DHT22;2919;48.630;9.000;2023-12-22T10:06:32;6.60;99.90
5786;DHT22;2919;48.630;9.000;2023-12-22T10:08:58;6.80;99.90
5786;DHT22;2919;48.630;9.000;2023-12-22T10:11:25;6.80;99.90
5786;DHT22;2919;48.630;9.000;2023-12-22T10:13:52;6.70;99.90
5786;DHT22;2919;48.630;9.000;2023-12-22T10:16:19;6.70;99.90
5786;DHT22;2919;48.630;9.000;2023-12-22T10:18:44;6.70;99.90
5786;DHT22;2919;48.630;9.000;2023-12-22T10:21:10;6.90;99.90
5786;DHT22;2919;48.630;9.000;2023-12-22T10:23:36;6.80;99.90
5786;DHT22;2919;48.630;9.000;2023-12-22T10:26:01;6.90;99.90
5786;DHT22;2919;48.630;9.000;2023-12-22T10:28:27;7.00;99.90
5786;DHT22;2919;48.630;9.000;2023-12-22T10:30:53;6.80;99.90
5786;DHT22;2919;48.630;9.000;2023-12-22T10:33:21;6.80;99.90
5786;DHT22;2919;48.630;9.000;2023-12-22T10:35:46;7.20;99.90
5786;DHT22;2919;48.630;9.000;2023-12-22T10:38:14;7.50;99.90
5786;DHT22;2919;48.630;9.000;2023-12-22T10:40:39;7.10;99.90
5786;DHT22;2919;48.630;9.000;2023-12-22T10:43:05;6.90;99.90
5786;DHT22;2919;48.630;9.000;2023-12-22T10:45:31;6.70;99.90
5786;DHT22;2919;48.630;9.000;2023-12-22T10:47:57;6.70;99.90
5786;DHT22;2919;48.630;9.000;2023-12-22T10:50:23;6.90;99.90
5786;DHT22;2919;48.630;9.000;2023-12-22T10:52:50;6.90;99.90
5786;DHT22;2919;48.630;9.000;2023-12-22T10:55:16;7.00;99.90
5786;DHT22;2919;48.630;9.000;2023-12-22T10:57:47;6.80;99.90
5786;DHT22;2919;48.630;9.000;2023-12-22T11:00:15;6.40;99.90
5786;DHT22;2919;48.630;9.000;2023-12-22T11:02:42;6.30;99.90
5786;DHT22;2919;48.630;9.000;2023-12-22T11:05:10;6.40;99.90
5786;DHT22;2919;48.630;9.000;2023-12-22T11:07:37;6.30;99.90
5786;DHT22;2919;48.630;9.000;2023-12-22T11:10:05;6.20;99.90
5786;DHT22;2919;48.630;9.000;2023-12-22T11:12:38;6.20;99.90
5786;DHT22;2919;48.630;9.000;2023-12-22T11:15:04;6.20;99.90
5786;DHT22;2919;48.630;9.000;2023-12-22T11:17:34;6.20;99.90
5786;DHT22;2919;48.630;9.000;2023-12-22T11:20:09;6.10;99.90
5786;DHT22;2919;48.630;9.000;2023-12-22T11:22:36;6.20;99.90
5786;DHT22;2919;48.630;9.000;2023-12-22T11:25:02;6.10;99.90
5786;DHT22;2919;48.630;9.000;2023-12-22T11:27:29;6.10;99.90
5786;DHT22;2919;48.630;9.000;2023-12-22T11:29:55;6.10;99.90
5786;DHT22;2919;48.630;9.000;2023-12-22T11:32:21;6.00;99.90
5786;DHT22;2919;48.630;9.000;2023-12-22T11:34:47;6.10;99.90
5786;DHT22;2919;48.630;9.000;2023-12-22T11:37:14;5.90;99.90
5786;DHT22;2919;48.630;9.000;2023-12-22T11:39:41;6.10;99.90
5786;DHT22;2919;48.630;9.000;2023-12-22T11:42:13;5.90;99.90
5786;DHT22;2919;48.630;9.000;2023-12-22T11:44:39;6.10;99.90
5786;DHT22;2919;48.630;9.000;2023-12-22T11:47:07;6.00;99.90
5786;DHT22;2919;48.630;9.000;2023-12-22T11:49:34;5.90;99.90
5786;DHT22;2919;48.630;9.000;2023-12-22T11:52:12;5.90;99.90
5786;DHT22;2919;48.630;9.000;2023-12-22T11:54:52;5.90;99.90
5786;DHT22;2919;48.630;9.000;2023-12-22T11:57:35;5.90;99.90
5786;DHT22;2919;48.630;9.000;2023-12-22T12:00:37;5.90;99.90
5786;DHT22;2919;48.630;9.000;2023-12-22T12:02:57;5.90;99.90
5786;DHT22;2919;48.630;9.000;2023-12-22T12:05:22;5.90;99.90
5786;DHT22;2919;48.630;9.000;2023-12-22T12:07:48;5.90;99.90
5786;DHT22;2919;48.630;9.000;2023-12-22T12:13:08;6.00;99.90
5786;DHT22;2919;48.630;9.000;2023-12-22T12:15:34;6.00;99.90
5786;DHT22;2919;48.630;9.000;2023-12-22T12:18:01;5.90;99.90
5786;DHT22;2919;48.630;9.000;2023-12-22T12:20:26;5.90;99.90
5786;DHT22;2919;48.630;9.000;2023-12-22T12:22:53;5.90;99.90
5786;DHT22;2919;48.630;9.000;2023-12-22T12:25:22;5.90;99.90
5786;DHT22;2919;48.630;9.000;2023-12-22T12:28:06;5.90;99.90
5786;DHT22;2919;48.630;9.000;2023-12-22T12:30:33;6.00;99.90
5786;DHT22;2919;48.630;9.000;2023-12-22T12:33:05;6.00;99.90
5786;DHT22;2919;48.630;9.000;2023-12-22T12:35:32;6.00;99.90
5786;DHT22;2919;48.630;9.000;2023-12-22T12:37:59;6.00;99.90
5786;DHT22;2919;48.630;9.000;2023-12-22T12:40:27;6.00;99.90
5786;DHT22;2919;48.630;9.000;2023-12-22T12:42:55;6.10;99.90
5786;DHT22;2919;48.630;9.000;2023-12-22T12:45:24;6.10;99.90
5786;DHT22;2919;48.630;9.000;2023-12-22T12:48:00;6.10;99.90
5786;DHT22;2919;48.630;9.000;2023-12-22T12:50:29;6.20;99.90
5786;DHT22;2919;48.630;9.000;2023-12-22T12:52:56;6.30;99.90
5786;DHT22;2919;48.630;9.000;2023-12-22T12:55:23;6.50;99.90
5786;DHT22;2919;48.630;9.000;2023-12-22T12:57:49;6.50;99.90
5786;DHT22;2919;48.630;9.000;2023-12-22T13:00:17;6.50;99.90
5786;DHT22;2919;48.630;9.000;2023-12-22T13:02:49;6.50;99.90
5786;DHT22;2919;48.630;9.000;2023-12-22T13:05:23;6.50;99.90
5786;DHT22;2919;48.630;9.000;2023-12-22T13:07:49;6.60;99.90
5786;DHT22;2919;48.630;9.000;2023-12-22T13:10:25;6.70;99.90
5786;DHT22;2919;48.630;9.000;2023-12-22T13:12:51;6.70;99.90
5786;DHT22;2919;48.630;9.000;2023-12-22T13:15:20;6.70;99.90
5786;DHT22;2919;48.630;9.000;2023-12-22T13:17:47;6.70;99.90
5786;DHT22;2919;48.630;9.000;2023-12-22T13:20:12;6.80;99.90
5786;DHT22;2919;48.630;9.000;2023-12-22T13:22:38;6.80;99.90
5786;DHT22;2919;48.630;9.000;2023-12-22T13:25:04;6.80;99.90
5786;DHT22;2919;48.630;9.000;2023-12-22T13:27:30;6.90;99.90
5786;DHT22;2919;48.630;9.000;2023-12-22T13:29:55;7.00;99.90
5786;DHT22;2919;48.630;9.000;2023-12-22T13:32:22;7.00;99.90
5786;DHT22;2919;48.630;9.000;2023-12-22T13:34:52;7.10;99.90
5786;DHT22;2919;48.630;9.000;2023-12-22T13:37:18;7.00;99.90
5786;DHT22;2919;48.630;9.000;2023-12-22T13:39:45;6.90;99.90
5786;DHT22;2919;48.630;9.000;2023-12-22T13:42:18;6.90;99.90
5786;DHT22;2919;48.630;9.000;2023-12-22T13:44:47;7.10;99.90
5786;DHT22;2919;48.630;9.000;2023-12-22T13:47:18;7.10;99.90
5786;DHT22;2919;48.630;9.000;2023-12-22T13:49:44;6.90;99.90
5786;DHT22;2919;48.630;9.000;2023-12-22T13:52:28;7.10;99.90
5786;DHT22;2919;48.630;9.000;2023-12-22T13:54:57;7.00;99.90
5786;DHT22;2919;48.630;9.000;2023-12-22T13:57:26;7.00;99.90
5786;DHT22;2919;48.630;9.000;2023-12-22T13:59:51;7.00;99.90
5786;DHT22;2919;48.630;9.000;2023-12-22T14:02:22;7.10;99.90
5786;DHT22;2919;48.630;9.000;2023-12-22T14:04:51;7.10;99.90
5786;DHT22;2919;48.630;9.000;2023-12-22T14:07:17;7.10;99.90
5786;DHT22;2919;48.630;9.000;2023-12-22T14:09:42;7.10;99.90
5786;DHT22;2919;48.630;9.000;2023-12-22T14:12:08;7.20;99.90
5786;DHT22;2919;48.630;9.000;2023-12-22T14:14:33;7.10;99.90
5786;DHT22;2919;48.630;9.000;2023-12-22T14:16:59;7.10;99.90
5786;DHT22;2919;48.630;9.000;2023-12-22T14:19:24;7.40;99.90
5786;DHT22;2919;48.630;9.000;2023-12-22T14:21:50;7.10;99.90
5786;DHT22;2919;48.630;9.000;2023-12-22T14:24:16;7.30;99.90
5786;DHT22;2919;48.630;9.000;2023-12-22T14:26:54;7.20;99.90
5786;DHT22;2919;48.630;9.000;2023-12-22T14:29:21;7.30;99.90
5786;DHT22;2919;48.630;9.000;2023-12-22T14:31:51;7.40;99.90
5786;DHT22;2919;48.630;9.000;2023-12-22T14:34:17;7.30;99.90
5786;DHT22;2919;48.630;9.000;2023-12-22T14:36:44;7.40;99.90
5786;DHT22;2919;48.630;9.000;2023-12-22T14:39:10;7.30;99.90
5786;DHT22;2919;48.630;9.000;2023-12-22T14:41:42;7.60;99.90
5786;DHT22;2919;48.630;9.000;2023-12-22T14:44:08;7.40;99.90
5786;DHT22;2919;48.630;9.000;2023-12-22T14:46:40;7.40;99.90
5786;DHT22;2919;48.630;9.000;2023-12-22T14:49:06;7.50;99.90
5786;DHT22;2919;48.630;9.000;2023-12-22T14:51:38;7.60;99.90
5786;DHT22;2919;48.630;9.000;2023-12-22T14:54:05;7.60;99.90
5786;DHT22;2919;48.630;9.000;2023-12-22T14:56:30;7.60;99.90
5786;DHT22;2919;48.630;9.000;2023-12-22T14:58:56;7.60;99.90
5786;DHT22;2919;48.630;9.000;2023-12-22T15:01:21;7.90;99.90
5786;DHT22;2919;48.630;9.000;2023-12-22T15:03:47;7.70;99.90
5786;DHT22;2919;48.630;9.000;2023-12-22T15:06:12;8.00;99.90
5786;DHT22;2919;48.630;9.000;2023-12-22T15:08:38;7.90;99.90
5786;DHT22;2919;48.630;9.000;2023-12-22T15:11:03;7.70;99.90
5786;DHT22;2919;48.630;9.000;2023-12-22T15:13:29;7.90;99.90
5786;DHT22;2919;48.630;9.000;2023-12-22T15:15:54;7.80;99.90
5786;DHT22;2919;48.630;9.000;2023-12-22T15:18:20;7.90;99.90
5786;DHT22;2919;48.630;9.000;2023-12-22T15:20:46;7.70;99.90
5786;DHT22;2919;48.630;9.000;2023-12-22T15:23:11;7.60;99.90
5786;DHT22;2919;48.630;9.000;2023-12-22T15:25:37;7.60;99.90
5786;DHT22;2919;48.630;9.000;2023-12-22T15:28:02;7.80;99.90
5786;DHT22;2919;48.630;9.000;2023-12-22T15:30:28;7.70;99.90
5786;DHT22;2919;48.630;9.000;2023-12-22T15:32:54;7.70;99.90
5786;DHT22;2919;48.630;9.000;2023-12-22T15:35:19;7.70;99.90
5786;DHT22;2919;48.630;9.000;2023-12-22T15:37:45;8.00;99.90
5786;DHT22;2919;48.630;9.000;2023-12-22T15:40:10;7.80;99.90
5786;DHT22;2919;48.630;9.000;2023-12-22T15:42:37;7.80;99.90
5786;DHT22;2919;48.630;9.000;2023-12-22T15:45:02;7.80;99.90
5786;DHT22;2919;48.630;9.000;2023-12-22T15:47:29;7.70;99.90
5786;DHT22;2919;48.630;9.000;2023-12-22T15:49:54;7.60;99.90
5786;DHT22;2919;48.630;9.000;2023-12-22T15:52:20;7.70;99.90
5786;DHT22;2919;48.630;9.000;2023-12-22T15:54:45;7.60;99.90
5786;DHT22;2919;48.630;9.000;2023-12-22T15:57:11;7.60;99.90
5786;DHT22;2919;48.630;9.000;2023-12-22T15:59:36;7.50;99.90
5786;DHT22;2919;48.630;9.000;2023-12-22T16:02:02;7.60;99.90
5786;DHT22;2919;48.630;9.000;2023-12-22T16:04:28;7.50;99.90
5786;DHT22;2919;48.630;9.000;2023-12-22T16:06:55;7.50;99.90
5786;DHT22;2919;48.630;9.000;2023-12-22T16:09:20;7.80;99.90
5786;DHT22;2919;48.630;9.000;2023-12-22T16:11:46;7.40;99.90
5786;DHT22;2919;48.630;9.000;2023-12-22T16:14:12;8.50;99.90
5786;DHT22;2919;48.630;9.000;2023-12-22T16:16:38;7.50;99.90
5786;DHT22;2919;48.630;9.000;2023-12-22T16:19:03;7.50;99.90
5786;DHT22;2919;48.630;9.000;2023-12-22T16:21:29;7.50;99.90
5786;DHT22;2919;48.630;9.000;2023-12-22T16:23:54;7.80;99.90
5786;DHT22;2919;48.630;9.000;2023-12-22T16:26:20;7.70;99.90
5786;DHT22;2919;48.630;9.000;2023-12-22T16:28:46;8.30;99.90